createdAt,value
2017-11-13T00:00:06.635Z,59.00
2017-11-13T00:01:11.577Z,59.00
2017-11-13T00:02:16.463Z,59.00
2017-11-13T00:03:21.676Z,59.00
2017-11-13T00:04:26.441Z,59.10
2017-11-13T00:05:31.406Z,59.00
2017-11-13T00:06:36.495Z,59.00
2017-11-13T00:07:41.807Z,59.10
2017-11-13T00:08:46.942Z,59.00
2017-11-13T00:09:52.139Z,59.00
2017-11-13T00:10:57.631Z,59.10
2017-11-13T00:12:02.770Z,59.00
2017-11-13T00:13:08.000Z,59.10
2017-11-13T00:14:12.786Z,59.00
2017-11-13T00:15:17.924Z,59.00
2017-11-13T00:16:23.038Z,59.10
2017-11-13T00:17:28.184Z,59.00
2017-11-13T00:18:33.336Z,59.00
2017-11-13T00:19:38.231Z,59.70
2017-11-13T00:20:43.344Z,59.10
2017-11-13T00:21:48.307Z,59.00
2017-11-13T00:22:53.923Z,59.00
2017-11-13T00:23:59.059Z,59.00
2017-11-13T00:25:04.236Z,59.10
2017-11-13T00:26:09.362Z,59.10
2017-11-13T00:27:14.258Z,59.00
2017-11-13T00:28:20.346Z,59.00
2017-11-13T00:29:25.350Z,59.00
2017-11-13T00:30:30.511Z,59.00
2017-11-13T00:31:35.715Z,59.00
2017-11-13T00:32:41.087Z,59.10
2017-11-13T00:33:46.278Z,59.10
2017-11-13T00:34:51.399Z,59.10
2017-11-13T00:35:56.587Z,59.10
2017-11-13T00:37:01.472Z,59.10
2017-11-13T00:38:07.186Z,59.10
2017-11-13T00:39:12.245Z,59.10
2017-11-13T00:40:17.318Z,59.10
2017-11-13T00:41:22.177Z,59.10
2017-11-13T00:42:27.236Z,59.10
2017-11-13T00:43:32.008Z,59.10
2017-11-13T00:44:36.731Z,59.10
2017-11-13T00:45:41.309Z,59.10
2017-11-13T00:46:45.928Z,59.00
2017-11-13T00:47:50.585Z,59.20
2017-11-13T00:48:55.293Z,59.10
2017-11-13T00:49:59.870Z,59.10
2017-11-13T00:51:04.563Z,59.20
2017-11-13T00:52:09.450Z,59.20
2017-11-13T00:53:13.998Z,59.20
2017-11-13T00:54:18.843Z,59.10
2017-11-13T00:55:23.443Z,59.20
2017-11-13T00:56:28.218Z,59.20
2017-11-13T00:57:32.922Z,59.20
2017-11-13T00:58:37.574Z,59.20
2017-11-13T00:59:42.537Z,59.20
2017-11-13T01:00:47.272Z,59.20
2017-11-13T01:01:51.865Z,59.20
2017-11-13T01:02:56.479Z,59.30
2017-11-13T01:04:01.008Z,59.20
2017-11-13T01:05:05.665Z,59.20
2017-11-13T01:06:10.346Z,59.20
2017-11-13T01:07:14.910Z,59.20
2017-11-13T01:08:19.629Z,59.20
2017-11-13T01:09:24.344Z,59.20
2017-11-13T01:10:29.218Z,59.20
2017-11-13T01:11:33.967Z,59.20
2017-11-13T01:12:38.764Z,59.20
2017-11-13T01:13:43.363Z,59.20
2017-11-13T01:14:48.079Z,59.20
2017-11-13T01:15:55.826Z,59.30
2017-11-13T01:17:00.444Z,59.20
2017-11-13T01:18:05.267Z,59.20
2017-11-13T01:19:10.032Z,59.20
2017-11-13T01:20:14.704Z,59.20
2017-11-13T01:21:19.311Z,59.20
2017-11-13T01:22:23.897Z,59.30
2017-11-13T01:23:28.501Z,59.30
2017-11-13T01:24:33.338Z,59.30
2017-11-13T01:25:37.993Z,59.30
2017-11-13T01:26:42.692Z,59.90
2017-11-13T01:27:47.543Z,59.30
2017-11-13T01:28:52.205Z,59.30
2017-11-13T01:29:56.867Z,59.30
2017-11-13T01:31:01.520Z,59.30
2017-11-13T01:32:06.222Z,59.20
2017-11-13T01:33:10.900Z,59.30
2017-11-13T01:34:15.467Z,59.20
2017-11-13T01:35:20.222Z,59.20
2017-11-13T01:36:24.934Z,59.30
2017-11-13T01:37:29.607Z,59.20
2017-11-13T01:38:34.270Z,59.20
2017-11-13T01:39:38.967Z,59.40
2017-11-13T01:40:43.799Z,59.20
2017-11-13T01:41:48.512Z,59.30
2017-11-13T01:42:53.254Z,59.20
2017-11-13T01:43:57.813Z,59.20
2017-11-13T01:45:02.483Z,59.30
2017-11-13T01:46:07.195Z,59.30
2017-11-13T01:47:11.839Z,59.20
2017-11-13T01:48:16.699Z,59.20
2017-11-13T01:49:21.569Z,59.20
2017-11-13T01:50:26.303Z,59.30
2017-11-13T01:51:31.167Z,59.20
2017-11-13T01:52:36.000Z,59.20
2017-11-13T01:53:40.586Z,59.30
2017-11-13T01:54:45.395Z,59.30
2017-11-13T01:55:50.081Z,59.30
2017-11-13T01:56:54.976Z,59.20
2017-11-13T01:57:59.744Z,59.20
2017-11-13T01:59:04.437Z,59.20
2017-11-13T02:00:09.303Z,59.20
2017-11-13T02:01:14.180Z,59.20
2017-11-13T02:02:19.158Z,59.20
2017-11-13T02:03:23.903Z,59.20
2017-11-13T02:04:28.694Z,59.20
2017-11-13T02:05:33.416Z,59.20
2017-11-13T02:06:38.296Z,59.20
2017-11-13T02:07:43.159Z,59.10
2017-11-13T02:08:48.001Z,59.20
2017-11-13T02:09:52.683Z,59.20
2017-11-13T02:10:57.397Z,59.20
2017-11-13T02:12:02.066Z,59.20
2017-11-13T02:13:06.791Z,59.20
2017-11-13T02:14:11.366Z,59.20
2017-11-13T02:15:16.169Z,59.20
2017-11-13T02:16:20.982Z,59.20
2017-11-13T02:17:25.690Z,59.20
2017-11-13T02:18:30.593Z,59.10
2017-11-13T02:19:35.177Z,59.20
2017-11-13T02:20:39.985Z,59.20
2017-11-13T02:21:44.704Z,59.20
2017-11-13T02:22:49.262Z,59.20
2017-11-13T02:23:53.832Z,59.20
2017-11-13T02:24:58.488Z,59.20
2017-11-13T02:26:03.174Z,59.20
2017-11-13T02:27:08.072Z,59.20
2017-11-13T02:28:12.755Z,59.20
2017-11-13T02:29:17.356Z,59.20
2017-11-13T02:30:22.052Z,59.20
2017-11-13T02:31:26.635Z,59.20
2017-11-13T02:32:31.426Z,59.20
2017-11-13T02:33:36.141Z,59.20
2017-11-13T02:34:40.700Z,59.20
2017-11-13T02:35:45.782Z,59.20
2017-11-13T02:36:50.590Z,59.10
2017-11-13T02:37:55.220Z,59.20
2017-11-13T02:38:59.804Z,59.20
2017-11-13T02:40:04.538Z,59.20
2017-11-13T02:41:09.252Z,59.10
2017-11-13T02:42:13.994Z,59.20
2017-11-13T02:43:18.810Z,59.20
2017-11-13T02:44:23.489Z,59.20
2017-11-13T02:45:28.194Z,59.20
2017-11-13T02:46:32.789Z,59.20
2017-11-13T02:47:37.383Z,59.20
2017-11-13T02:48:42.173Z,59.20
2017-11-13T02:49:46.753Z,59.10
2017-11-13T02:50:51.416Z,59.10
2017-11-13T02:51:56.263Z,59.20
2017-11-13T02:53:01.545Z,59.10
2017-11-13T02:54:06.287Z,59.10
2017-11-13T02:55:10.888Z,59.20
2017-11-13T02:56:15.803Z,59.20
2017-11-13T02:57:20.634Z,59.20
2017-11-13T02:58:25.730Z,59.20
2017-11-13T02:59:30.502Z,59.10
2017-11-13T03:00:35.335Z,59.10
2017-11-13T03:01:40.075Z,59.10
2017-11-13T03:02:44.844Z,59.10
2017-11-13T03:03:49.563Z,59.10
2017-11-13T03:04:54.181Z,59.10
2017-11-13T03:05:58.901Z,59.10
2017-11-13T03:07:03.641Z,59.10
2017-11-13T03:08:08.323Z,59.10
2017-11-13T03:09:13.217Z,59.10
2017-11-13T03:10:17.983Z,59.10
2017-11-13T03:11:22.807Z,59.10
2017-11-13T03:12:27.683Z,59.10
2017-11-13T03:13:32.277Z,59.10
2017-11-13T03:14:37.028Z,59.10
2017-11-13T03:15:41.767Z,59.10
2017-11-13T03:16:46.469Z,59.00
2017-11-13T03:17:51.202Z,59.00
2017-11-13T03:18:55.933Z,59.10
2017-11-13T03:20:00.622Z,59.00
2017-11-13T03:21:05.380Z,59.00
2017-11-13T03:22:10.079Z,59.00
2017-11-13T03:23:14.701Z,59.10
2017-11-13T03:24:19.356Z,58.90
2017-11-13T03:25:24.181Z,58.90
2017-11-13T03:26:28.896Z,58.90
2017-11-13T03:27:33.602Z,59.00
2017-11-13T03:28:38.373Z,58.90
2017-11-13T03:29:43.098Z,59.00
2017-11-13T03:30:47.944Z,59.00
2017-11-13T03:31:52.637Z,58.90
2017-11-13T03:32:57.337Z,59.00
2017-11-13T03:34:02.172Z,58.90
2017-11-13T03:35:06.960Z,59.00
2017-11-13T03:36:11.550Z,59.00
2017-11-13T03:37:16.346Z,59.00
2017-11-13T03:38:20.961Z,59.00
2017-11-13T03:39:25.591Z,58.90
2017-11-13T03:40:30.300Z,59.00
2017-11-13T03:41:35.068Z,59.00
2017-11-13T03:42:39.894Z,58.90
2017-11-13T03:43:44.605Z,59.00
2017-11-13T03:44:49.485Z,59.00
2017-11-13T03:45:54.054Z,59.00
2017-11-13T03:46:58.873Z,58.90
2017-11-13T03:48:03.584Z,59.00
2017-11-13T03:49:08.382Z,58.90
2017-11-13T03:50:13.155Z,58.90
2017-11-13T03:51:17.922Z,59.00
2017-11-13T03:52:22.641Z,58.90
2017-11-13T03:53:27.511Z,58.90
2017-11-13T03:54:32.191Z,59.00
2017-11-13T03:55:36.791Z,58.90
2017-11-13T03:56:41.673Z,59.00
2017-11-13T03:57:46.461Z,59.00
2017-11-13T03:58:51.139Z,58.90
2017-11-13T03:59:55.824Z,58.90
2017-11-13T04:01:00.578Z,58.80
2017-11-13T04:02:05.172Z,58.90
2017-11-13T04:03:09.967Z,58.90
2017-11-13T04:04:14.697Z,58.80
2017-11-13T04:05:19.380Z,58.90
2017-11-13T04:06:23.943Z,58.80
2017-11-13T04:07:28.577Z,59.00
2017-11-13T04:08:33.416Z,58.90
2017-11-13T04:09:38.322Z,58.90
2017-11-13T04:10:43.090Z,58.90
2017-11-13T04:11:47.868Z,58.90
2017-11-13T04:12:52.518Z,58.90
2017-11-13T04:13:57.380Z,58.90
2017-11-13T04:15:02.119Z,58.90
2017-11-13T04:16:06.817Z,58.90
2017-11-13T04:17:11.901Z,58.90
2017-11-13T04:18:16.585Z,58.80
2017-11-13T04:19:21.176Z,58.90
2017-11-13T04:20:25.853Z,58.90
2017-11-13T04:21:30.521Z,58.90
2017-11-13T04:22:35.257Z,58.90
2017-11-13T04:23:40.147Z,58.90
2017-11-13T04:24:44.922Z,58.80
2017-11-13T04:25:49.669Z,58.80
2017-11-13T04:26:54.568Z,58.80
2017-11-13T04:27:59.293Z,58.80
2017-11-13T04:29:04.040Z,58.80
2017-11-13T04:30:08.876Z,58.80
2017-11-13T04:31:13.475Z,58.80
2017-11-13T04:32:18.192Z,58.80
2017-11-13T04:33:23.063Z,58.80
2017-11-13T04:34:27.684Z,58.80
2017-11-13T04:35:32.310Z,58.80
2017-11-13T04:36:37.203Z,59.00
2017-11-13T04:37:42.152Z,58.80
2017-11-13T04:38:47.053Z,58.80
2017-11-13T04:39:52.196Z,58.80
2017-11-13T04:40:57.323Z,58.80
2017-11-13T04:42:02.405Z,58.80
2017-11-13T04:43:07.194Z,58.80
2017-11-13T04:44:11.901Z,58.80
2017-11-13T04:45:16.752Z,58.70
2017-11-13T04:46:21.989Z,58.70
2017-11-13T04:47:27.197Z,58.80
2017-11-13T04:48:32.247Z,58.80
2017-11-13T04:49:37.407Z,58.70
2017-11-13T04:50:42.475Z,58.60
2017-11-13T04:51:47.720Z,58.80
2017-11-13T04:52:52.864Z,58.60
2017-11-13T04:53:57.809Z,58.80
2017-11-13T04:55:02.831Z,58.60
2017-11-13T04:56:07.986Z,58.70
2017-11-13T04:57:13.041Z,58.70
2017-11-13T04:58:17.895Z,58.60
2017-11-13T04:59:22.977Z,58.70
2017-11-13T05:00:28.029Z,58.60
2017-11-13T05:01:32.972Z,58.60
2017-11-13T05:02:38.116Z,59.30
2017-11-13T05:03:43.164Z,58.60
2017-11-13T05:04:48.285Z,58.70
2017-11-13T05:05:53.328Z,58.70
2017-11-13T05:06:58.225Z,58.60
2017-11-13T05:08:03.491Z,58.60
2017-11-13T05:09:08.370Z,58.60
2017-11-13T05:10:13.435Z,58.60
2017-11-13T05:11:18.437Z,58.60
2017-11-13T05:12:23.624Z,58.60
2017-11-13T05:13:29.760Z,58.50
2017-11-13T05:14:34.875Z,58.60
2017-11-13T05:15:39.781Z,58.50
2017-11-13T05:16:44.911Z,58.50
2017-11-13T05:17:50.168Z,58.70
2017-11-13T05:18:55.331Z,58.50
2017-11-13T05:20:00.539Z,58.50
2017-11-13T05:21:05.706Z,58.60
2017-11-13T05:22:10.815Z,58.60
2017-11-13T05:23:17.185Z,58.50
2017-11-13T05:24:22.425Z,58.60
2017-11-13T05:25:27.384Z,58.50
2017-11-13T05:26:32.520Z,58.50
2017-11-13T05:27:37.614Z,58.50
2017-11-13T05:28:42.718Z,58.50
2017-11-13T05:29:47.852Z,58.50
2017-11-13T05:30:53.065Z,58.50
2017-11-13T05:31:58.459Z,58.50
2017-11-13T05:33:03.582Z,58.50
2017-11-13T05:34:08.694Z,58.50
2017-11-13T05:35:13.896Z,58.50
2017-11-13T05:36:19.040Z,58.80
2017-11-13T05:37:24.027Z,58.50
2017-11-13T05:38:29.175Z,58.40
2017-11-13T05:39:34.339Z,58.50
2017-11-13T05:40:39.455Z,58.50
2017-11-13T05:41:44.740Z,58.50
2017-11-13T05:42:49.836Z,58.50
2017-11-13T05:43:54.814Z,58.60
2017-11-13T05:45:00.067Z,58.50
2017-11-13T05:46:20.206Z,58.50
2017-11-13T05:47:25.339Z,58.40
2017-11-13T05:48:30.413Z,58.50
2017-11-13T05:49:35.649Z,58.50
2017-11-13T05:50:40.738Z,58.40
2017-11-13T05:51:45.899Z,58.50
2017-11-13T05:52:51.371Z,58.50
2017-11-13T05:53:57.890Z,58.40
2017-11-13T05:55:03.212Z,58.50
2017-11-13T05:56:08.400Z,58.50
2017-11-13T05:57:13.635Z,58.50
2017-11-13T05:58:18.722Z,58.50
2017-11-13T05:59:24.108Z,58.50
2017-11-13T06:00:29.610Z,58.40
2017-11-13T06:01:34.798Z,58.60
2017-11-13T06:02:40.023Z,58.60
2017-11-13T06:03:45.296Z,58.80
2017-11-13T06:04:50.491Z,58.90
2017-11-13T06:05:55.544Z,58.70
2017-11-13T06:07:00.856Z,58.50
2017-11-13T06:08:05.897Z,58.60
2017-11-13T06:09:10.772Z,58.50
2017-11-13T06:10:16.181Z,58.50
2017-11-13T06:11:21.460Z,58.40
2017-11-13T06:12:26.820Z,58.40
2017-11-13T06:13:31.680Z,58.50
2017-11-13T06:14:36.760Z,58.40
2017-11-13T06:15:41.833Z,58.30
2017-11-13T06:16:47.060Z,58.10
2017-11-13T06:17:52.305Z,57.90
2017-11-13T06:18:57.824Z,57.90
2017-11-13T06:20:03.233Z,57.90
2017-11-13T06:21:08.495Z,57.70
2017-11-13T06:22:13.710Z,57.70
2017-11-13T06:23:18.870Z,57.20
2017-11-13T06:24:24.199Z,56.50
2017-11-13T06:25:29.933Z,56.00
2017-11-13T06:26:47.240Z,55.80
2017-11-13T06:27:52.669Z,55.90
2017-11-13T06:28:57.902Z,55.90
2017-11-13T06:30:03.301Z,55.90
2017-11-13T06:31:08.405Z,56.00
2017-11-13T06:32:14.574Z,56.40
2017-11-13T06:33:19.726Z,56.00
2017-11-13T06:34:25.158Z,56.20
2017-11-13T06:35:30.416Z,56.30
2017-11-13T06:36:35.793Z,56.30
2017-11-13T06:37:41.659Z,56.70
2017-11-13T06:38:47.091Z,56.80
2017-11-13T06:39:52.310Z,57.00
2017-11-13T06:40:58.096Z,57.00
2017-11-13T06:42:03.405Z,57.10
2017-11-13T06:43:08.600Z,57.20
2017-11-13T06:44:13.969Z,57.20
2017-11-13T06:45:19.583Z,57.30
2017-11-13T06:46:25.129Z,57.20
2017-11-13T06:47:30.476Z,57.10
2017-11-13T06:48:37.164Z,57.20
2017-11-13T06:49:42.494Z,57.10
2017-11-13T06:50:47.909Z,57.30
2017-11-13T06:51:53.313Z,57.60
2017-11-13T06:52:58.950Z,57.60
2017-11-13T06:54:04.311Z,57.60
2017-11-13T06:55:09.520Z,57.70
2017-11-13T06:56:14.841Z,57.70
2017-11-13T06:57:20.182Z,57.80
2017-11-13T06:58:25.712Z,57.60
2017-11-13T06:59:31.770Z,57.50
2017-11-13T07:00:37.321Z,57.30
2017-11-13T07:01:42.863Z,57.30
2017-11-13T07:02:48.410Z,57.40
2017-11-13T07:03:54.458Z,57.50
2017-11-13T07:05:00.166Z,57.40
2017-11-13T07:06:05.472Z,58.00
2017-11-13T07:07:11.275Z,57.90
2017-11-13T07:08:16.896Z,58.00
2017-11-13T07:09:22.906Z,58.00
2017-11-13T07:10:28.361Z,58.00
2017-11-13T07:11:33.572Z,58.10
2017-11-13T07:12:38.692Z,58.10
2017-11-13T07:13:44.604Z,58.30
2017-11-13T07:14:50.037Z,58.30
2017-11-13T07:15:55.325Z,58.30
2017-11-13T07:17:00.549Z,58.30
2017-11-13T07:18:05.694Z,58.30
2017-11-13T07:19:10.933Z,58.30
2017-11-13T07:20:16.006Z,58.40
2017-11-13T07:21:21.298Z,58.40
2017-11-13T07:22:26.637Z,58.50
2017-11-13T07:23:32.330Z,58.50
2017-11-13T07:24:37.548Z,58.60
2017-11-13T07:25:42.992Z,58.60
2017-11-13T07:26:48.461Z,58.60
2017-11-13T07:27:53.494Z,58.60
2017-11-13T07:28:58.344Z,58.70
2017-11-13T07:30:03.844Z,58.70
2017-11-13T07:31:09.224Z,58.80
2017-11-13T07:32:14.359Z,58.80
2017-11-13T07:33:19.632Z,58.80
2017-11-13T07:34:25.021Z,58.80
2017-11-13T07:35:30.093Z,58.80
2017-11-13T07:36:35.516Z,58.80
2017-11-13T07:37:40.847Z,58.80
2017-11-13T07:38:46.208Z,58.80
2017-11-13T07:39:51.617Z,58.80
2017-11-13T07:40:56.899Z,58.80
2017-11-13T07:42:02.680Z,58.90
2017-11-13T07:43:07.987Z,58.90
2017-11-13T07:44:13.276Z,59.00
2017-11-13T07:45:18.708Z,59.10
2017-11-13T07:46:24.753Z,59.10
2017-11-13T07:47:30.290Z,59.30
2017-11-13T07:48:35.674Z,59.30
2017-11-13T07:49:40.537Z,59.30
2017-11-13T07:50:45.939Z,59.40
2017-11-13T07:51:51.098Z,59.40
2017-11-13T07:52:56.620Z,59.40
2017-11-13T07:54:01.852Z,59.50
2017-11-13T07:55:06.685Z,59.40
2017-11-13T07:56:11.648Z,59.50
2017-11-13T07:57:17.114Z,59.40
2017-11-13T07:58:22.811Z,59.50
2017-11-13T07:59:27.986Z,59.50
2017-11-13T08:00:33.006Z,59.50
2017-11-13T08:01:38.408Z,59.50
2017-11-13T08:02:44.078Z,59.50
2017-11-13T08:03:49.219Z,59.60
2017-11-13T08:04:54.126Z,59.60
2017-11-13T08:05:58.914Z,59.60
2017-11-13T08:07:04.211Z,59.70
2017-11-13T08:08:09.508Z,59.60
2017-11-13T08:09:14.463Z,59.70
2017-11-13T08:10:19.671Z,59.80
2017-11-13T08:11:25.096Z,59.70
2017-11-13T08:12:30.315Z,59.80
2017-11-13T08:13:37.126Z,59.80
2017-11-13T08:14:42.541Z,59.80
2017-11-13T08:15:48.148Z,59.80
2017-11-13T08:16:53.712Z,59.80
2017-11-13T08:17:58.654Z,59.70
2017-11-13T08:19:04.200Z,59.70
2017-11-13T08:20:10.225Z,59.70
2017-11-13T08:21:16.278Z,59.70
2017-11-13T08:22:21.793Z,59.70
2017-11-13T08:23:27.740Z,59.70
2017-11-13T08:24:32.692Z,59.80
2017-11-13T08:25:38.178Z,59.90
2017-11-13T08:26:43.548Z,59.90
2017-11-13T08:27:48.971Z,60.10
2017-11-13T08:28:54.350Z,60.20
2017-11-13T08:29:59.200Z,60.20
2017-11-13T08:31:04.878Z,60.40
2017-11-13T08:32:09.872Z,60.60
2017-11-13T08:33:15.003Z,60.50
2017-11-13T08:34:21.070Z,60.40
2017-11-13T08:35:26.361Z,60.30
2017-11-13T08:36:31.418Z,60.40
2017-11-13T08:37:38.914Z,60.40
2017-11-13T08:38:44.494Z,60.50
2017-11-13T08:39:49.724Z,60.50
2017-11-13T08:40:55.073Z,60.50
2017-11-13T08:42:00.329Z,60.60
2017-11-13T08:43:05.597Z,60.60
2017-11-13T08:44:10.867Z,60.50
2017-11-13T08:45:15.918Z,60.60
2017-11-13T08:46:21.152Z,60.50
2017-11-13T08:47:26.477Z,60.60
2017-11-13T08:48:32.179Z,60.70
2017-11-13T08:49:37.264Z,60.60
2017-11-13T08:50:42.555Z,60.70
2017-11-13T08:51:49.341Z,60.70
2017-11-13T08:52:54.656Z,60.90
2017-11-13T08:53:59.993Z,60.90
2017-11-13T08:55:05.331Z,60.90
2017-11-13T08:56:10.367Z,60.90
2017-11-13T08:57:15.519Z,60.80
2017-11-13T08:58:20.484Z,60.90
2017-11-13T08:59:25.923Z,60.90
2017-11-13T09:00:30.775Z,60.90
2017-11-13T09:01:36.248Z,60.80
2017-11-13T09:02:41.535Z,60.70
2017-11-13T09:03:46.941Z,60.70
2017-11-13T09:04:52.570Z,60.70
2017-11-13T09:05:58.081Z,60.50
2017-11-13T09:07:03.467Z,60.30
2017-11-13T09:08:08.872Z,60.30
2017-11-13T09:09:14.944Z,60.40
2017-11-13T09:10:20.774Z,60.60
2017-11-13T09:11:26.329Z,60.40
2017-11-13T09:12:31.763Z,60.50
2017-11-13T09:13:37.250Z,60.50
2017-11-13T09:14:42.754Z,60.60
2017-11-13T09:15:48.060Z,60.80
2017-11-13T09:16:53.299Z,60.90
2017-11-13T09:17:59.133Z,61.00
2017-11-13T09:19:04.265Z,61.10
2017-11-13T09:20:09.597Z,61.10
2017-11-13T09:21:14.886Z,61.20
2017-11-13T09:22:19.933Z,61.10
2017-11-13T09:23:24.979Z,61.40
2017-11-13T09:24:30.205Z,61.40
2017-11-13T09:25:35.882Z,61.40
2017-11-13T09:26:41.201Z,61.30
2017-11-13T09:27:46.648Z,61.20
2017-11-13T09:28:51.906Z,61.10
2017-11-13T09:29:57.115Z,61.00
2017-11-13T09:31:02.390Z,61.00
2017-11-13T09:32:07.867Z,61.00
2017-11-13T09:33:13.010Z,61.00
2017-11-13T09:34:18.270Z,61.00
2017-11-13T09:35:23.304Z,61.30
2017-11-13T09:36:28.276Z,61.20
2017-11-13T09:37:33.059Z,61.00
2017-11-13T09:38:38.454Z,60.90
2017-11-13T09:39:43.556Z,60.80
2017-11-13T09:40:48.405Z,60.80
2017-11-13T09:41:53.456Z,60.70
2017-11-13T09:43:00.208Z,60.70
2017-11-13T09:44:05.482Z,60.70
2017-11-13T09:45:10.442Z,60.80
2017-11-13T09:46:15.680Z,60.40
2017-11-13T09:47:20.769Z,57.50
2017-11-13T09:48:26.029Z,59.00
2017-11-13T09:49:30.972Z,59.40
2017-11-13T09:50:36.354Z,58.80
2017-11-13T09:51:41.385Z,57.30
2017-11-13T09:52:46.937Z,56.80
2017-11-13T09:53:52.064Z,56.70
2017-11-13T09:54:56.963Z,56.60
2017-11-13T09:56:01.949Z,56.50
2017-11-13T09:57:06.925Z,56.40
2017-11-13T09:58:11.809Z,56.30
2017-11-13T09:59:16.937Z,56.30
2017-11-13T10:00:21.907Z,56.50
2017-11-13T10:01:26.831Z,56.60
2017-11-13T10:02:31.646Z,56.60
2017-11-13T10:03:36.480Z,56.60
2017-11-13T10:04:41.382Z,56.60
2017-11-13T10:05:46.286Z,56.60
2017-11-13T10:06:51.284Z,56.70
2017-11-13T10:07:56.217Z,56.70
2017-11-13T10:09:01.111Z,56.70
2017-11-13T10:10:05.886Z,56.80
2017-11-13T10:11:10.835Z,56.70
2017-11-13T10:12:15.768Z,56.80
2017-11-13T10:13:20.626Z,56.90
2017-11-13T10:14:25.584Z,57.00
2017-11-13T10:15:30.526Z,57.00
2017-11-13T10:16:35.353Z,57.10
2017-11-13T10:17:40.376Z,57.00
2017-11-13T10:18:45.340Z,57.10
2017-11-13T10:19:50.296Z,57.10
2017-11-13T10:20:55.244Z,57.10
2017-11-13T10:22:00.583Z,57.90
2017-11-13T10:23:05.637Z,57.20
2017-11-13T10:24:10.457Z,57.30
2017-11-13T10:25:15.380Z,57.30
2017-11-13T10:26:20.373Z,57.40
2017-11-13T10:27:25.440Z,57.40
2017-11-13T10:28:30.349Z,57.40
2017-11-13T10:29:35.351Z,57.40
2017-11-13T10:30:40.174Z,57.40
2017-11-13T10:31:45.762Z,57.40
2017-11-13T10:32:50.780Z,57.50
2017-11-13T10:33:55.744Z,57.50
2017-11-13T10:35:00.602Z,57.50
2017-11-13T10:36:05.649Z,57.60
2017-11-13T10:37:10.648Z,57.60
2017-11-13T10:38:15.544Z,57.60
2017-11-13T10:39:20.568Z,57.60
2017-11-13T10:40:25.382Z,57.60
2017-11-13T10:41:30.095Z,57.60
2017-11-13T10:42:35.456Z,57.70
2017-11-13T10:43:40.196Z,57.70
2017-11-13T10:44:45.093Z,57.70
2017-11-13T10:45:49.775Z,57.80
2017-11-13T10:46:54.693Z,57.90
2017-11-13T10:47:59.721Z,57.90
2017-11-13T10:49:05.028Z,57.90
2017-11-13T10:50:09.812Z,57.90
2017-11-13T10:51:14.667Z,57.90
2017-11-13T10:52:19.409Z,58.00
2017-11-13T10:53:24.385Z,58.00
2017-11-13T10:54:29.414Z,57.90
2017-11-13T10:55:34.502Z,58.00
2017-11-13T10:56:39.547Z,58.00
2017-11-13T10:57:44.386Z,58.00
2017-11-13T10:58:49.441Z,58.00
2017-11-13T10:59:54.261Z,58.10
2017-11-13T11:00:59.088Z,58.10
2017-11-13T11:02:04.066Z,58.10
2017-11-13T11:03:11.889Z,58.10
2017-11-13T11:04:17.186Z,58.10
2017-11-13T11:05:21.977Z,58.20
2017-11-13T11:06:26.815Z,58.10
2017-11-13T11:07:31.693Z,58.20
2017-11-13T11:08:37.334Z,58.30
2017-11-13T11:09:42.363Z,58.20
2017-11-13T11:10:47.174Z,58.30
2017-11-13T11:11:52.055Z,58.30
2017-11-13T11:12:56.918Z,58.30
2017-11-13T11:14:01.804Z,58.20
2017-11-13T11:15:06.732Z,58.30
2017-11-13T11:16:12.257Z,58.40
2017-11-13T11:17:17.389Z,58.30
2017-11-13T11:18:25.407Z,58.40
2017-11-13T11:19:31.602Z,58.40
2017-11-13T11:20:41.794Z,58.50
2017-11-13T11:21:48.194Z,58.70
2017-11-13T11:22:53.801Z,59.40
2017-11-13T11:23:59.471Z,59.80
2017-11-13T11:25:05.252Z,60.00
2017-11-13T11:26:12.031Z,60.00
2017-11-13T11:27:17.352Z,60.20
2017-11-13T11:28:22.503Z,60.10
2017-11-13T11:29:28.090Z,60.30
2017-11-13T11:30:33.606Z,60.50
2017-11-13T11:31:38.994Z,60.70
2017-11-13T11:32:44.465Z,60.80
2017-11-13T11:33:49.344Z,60.80
2017-11-13T11:34:54.487Z,60.90
2017-11-13T11:35:59.349Z,61.00
2017-11-13T11:37:04.076Z,61.00
2017-11-13T11:38:09.306Z,61.10
2017-11-13T11:39:14.641Z,61.20
2017-11-13T11:40:19.926Z,61.30
2017-11-13T11:41:25.347Z,61.20
2017-11-13T11:42:30.804Z,61.50
2017-11-13T11:43:35.724Z,61.70
2017-11-13T11:44:40.743Z,62.00
2017-11-13T11:45:45.852Z,61.90
2017-11-13T11:46:51.119Z,61.80
2017-11-13T11:47:55.948Z,62.00
2017-11-13T11:49:01.250Z,62.20
2017-11-13T11:50:06.109Z,62.40
2017-11-13T11:51:11.243Z,62.60
2017-11-13T11:52:16.272Z,62.70
2017-11-13T11:53:22.462Z,63.00
2017-11-13T11:54:27.579Z,62.90
2017-11-13T11:55:32.671Z,62.90
2017-11-13T11:56:37.785Z,62.70
2017-11-13T11:57:42.917Z,62.80
2017-11-13T11:58:48.293Z,62.70
2017-11-13T11:59:53.871Z,62.80
2017-11-13T12:01:00.303Z,62.90
2017-11-13T12:02:06.073Z,63.00
2017-11-13T12:03:11.380Z,63.00
2017-11-13T12:04:16.779Z,63.30
2017-11-13T12:05:22.154Z,63.40
2017-11-13T12:06:27.922Z,63.40
2017-11-13T12:07:33.138Z,63.60
2017-11-13T12:08:38.204Z,63.60
2017-11-13T12:09:43.081Z,63.90
2017-11-13T12:10:48.671Z,63.80
2017-11-13T12:11:53.900Z,63.70
2017-11-13T12:12:59.324Z,63.70
2017-11-13T12:14:04.799Z,63.50
2017-11-13T12:15:10.484Z,63.50
2017-11-13T12:16:16.119Z,63.40
2017-11-13T12:17:21.880Z,63.50
2017-11-13T12:18:26.834Z,63.60
2017-11-13T12:19:32.260Z,63.60
2017-11-13T12:20:37.720Z,63.60
2017-11-13T12:21:43.316Z,63.60
2017-11-13T12:22:48.969Z,63.60
2017-11-13T12:23:54.355Z,63.50
2017-11-13T12:24:59.314Z,63.50
2017-11-13T12:26:04.554Z,63.50
2017-11-13T12:27:09.951Z,63.50
2017-11-13T12:28:15.350Z,63.50
2017-11-13T12:29:20.569Z,63.40
2017-11-13T12:30:25.876Z,63.50
2017-11-13T12:31:31.566Z,63.60
2017-11-13T12:32:38.447Z,63.30
2017-11-13T12:33:43.291Z,63.30
2017-11-13T12:34:48.679Z,63.30
2017-11-13T12:35:53.890Z,63.20
2017-11-13T12:36:59.240Z,63.10
2017-11-13T12:38:04.866Z,63.10
2017-11-13T12:39:09.781Z,63.10
2017-11-13T12:40:16.154Z,63.00
2017-11-13T12:41:21.573Z,63.00
2017-11-13T12:42:27.085Z,63.10
2017-11-13T12:43:32.896Z,63.00
2017-11-13T12:44:38.337Z,63.00
2017-11-13T12:45:43.733Z,62.90
2017-11-13T12:46:49.471Z,62.80
2017-11-13T12:47:55.860Z,62.90
2017-11-13T12:49:02.882Z,62.80
2017-11-13T12:50:09.141Z,62.80
2017-11-13T12:51:14.666Z,62.70
2017-11-13T12:52:20.252Z,62.70
2017-11-13T12:53:25.789Z,62.60
2017-11-13T12:54:31.096Z,62.70
2017-11-13T12:55:36.735Z,62.60
2017-11-13T12:56:42.141Z,62.60
2017-11-13T12:57:47.815Z,62.60
2017-11-13T12:58:53.530Z,62.60
2017-11-13T12:59:59.575Z,62.50
2017-11-13T13:01:05.311Z,62.50
2017-11-13T13:02:10.848Z,62.40
2017-11-13T13:03:20.493Z,62.40
2017-11-13T13:04:25.765Z,62.40
2017-11-13T13:05:31.093Z,62.30
2017-11-13T13:06:36.705Z,62.40
2017-11-13T13:07:41.596Z,62.30
2017-11-13T13:08:47.075Z,62.30
2017-11-13T13:09:52.529Z,62.30
2017-11-13T13:10:57.492Z,62.30
2017-11-13T13:12:03.032Z,62.30
2017-11-13T13:13:08.708Z,62.30
2017-11-13T13:14:15.094Z,62.30
2017-11-13T13:15:20.103Z,62.40
2017-11-13T13:16:25.700Z,62.40
2017-11-13T13:17:31.333Z,62.30
2017-11-13T13:18:40.010Z,62.20
2017-11-13T13:19:46.082Z,62.10
2017-11-13T13:20:51.751Z,62.10
2017-11-13T13:21:57.058Z,62.20
2017-11-13T13:23:02.837Z,62.20
2017-11-13T13:24:07.878Z,62.30
2017-11-13T13:25:12.911Z,62.20
2017-11-13T13:26:18.464Z,62.30
2017-11-13T13:27:23.890Z,62.30
2017-11-13T13:28:29.025Z,62.30
2017-11-13T13:29:35.027Z,62.50
2017-11-13T13:30:40.581Z,62.50
2017-11-13T13:31:46.085Z,62.50
2017-11-13T13:32:52.053Z,62.50
2017-11-13T13:33:59.064Z,62.70
2017-11-13T13:35:04.576Z,62.80
2017-11-13T13:36:09.995Z,62.90
2017-11-13T13:37:16.348Z,63.00
2017-11-13T13:38:22.048Z,63.00
2017-11-13T13:39:27.614Z,63.10
2017-11-13T13:40:32.765Z,63.00
2017-11-13T13:41:38.124Z,63.10
2017-11-13T13:42:43.611Z,63.10
2017-11-13T13:43:48.861Z,63.10
2017-11-13T13:44:54.019Z,63.10
2017-11-13T13:45:59.310Z,63.20
2017-11-13T13:47:04.710Z,63.20
2017-11-13T13:48:10.130Z,63.30
2017-11-13T13:49:17.598Z,63.40
2017-11-13T13:50:23.147Z,63.40
2017-11-13T13:51:28.390Z,63.50
2017-11-13T13:52:33.331Z,63.60
2017-11-13T13:53:38.758Z,63.60
2017-11-13T13:54:44.169Z,63.70
2017-11-13T13:55:49.521Z,63.80
2017-11-13T13:56:54.745Z,63.90
2017-11-13T13:58:00.030Z,64.00
2017-11-13T13:59:05.219Z,64.00